e-Mail: Password: Lost your password? Click here. - Register a new user

c h a v e z j u a r e z . c o m

Weather - Tiempo - Wetter - Temps

METAR DATA MMMX (Mexico City)

Mexico City / Licenci, Mexico (MMMX) 19-26N 099-06W
May 21, 2019 - 04:45 AM EDT / 2019.05.21 0845 UTC
Wind: from the SW (230 degrees) at 2 MPH (2 KT):0
Visibility: 6 mile(s):0
Sky conditions: clear
Temperature: 64 F (18 C)
Dew Point: 48 F (9 C)
Relative Humidity: 55%
Pressure (altimeter): 30.2 in. Hg (1022 hPa)
Pressure tendency: 0.03 inches (1.1 hPa) lower than three hours ago
ob: MMMX 210845Z 23002KT 6SM SKC 18/09 A3020 NOSIG RMK SLP014 57011 967 HZY AC
cycle: 9

Mexico City

St. Prex




Current weather alarms for Switzerland


www.wetteralarm.ch